createdAt,value
2023-11-09T00:00:02.410Z,9
2023-11-09T00:05:02.432Z,9.14
2023-11-09T00:10:01.960Z,9.14
2023-11-09T00:25:02.852Z,9.14
2023-11-09T00:30:02.307Z,9.1
2023-11-09T00:35:01.973Z,9.12
2023-11-09T00:40:01.763Z,9.19
2023-11-09T00:45:01.988Z,9.21
2023-11-09T00:50:01.435Z,9.18
2023-11-09T00:55:02.251Z,9.38
2023-11-09T01:00:02.887Z,9.18
2023-11-09T01:05:02.127Z,9.18
2023-11-09T01:10:01.781Z,9.18
2023-11-09T01:15:02.330Z,9.19
2023-11-09T01:20:01.585Z,9.24
2023-11-09T01:25:01.426Z,9.24
2023-11-09T01:30:01.334Z,9.18
2023-11-09T01:35:02.455Z,9.3
2023-11-09T01:40:02.089Z,9.09
2023-11-09T01:45:02.032Z,9.11
2023-11-09T01:50:02.285Z,9.19
2023-11-09T01:55:02.405Z,9.24
2023-11-09T02:00:02.048Z,9.18
2023-11-09T02:05:01.673Z,9.18
2023-11-09T02:10:01.306Z,9.21
2023-11-09T02:15:02.046Z,9.18
2023-11-09T02:20:01.897Z,9.16
2023-11-09T02:25:02.309Z,9.24
2023-11-09T02:30:02.148Z,9.18
2023-11-09T02:35:02.420Z,9.18
2023-11-09T02:40:01.606Z,9.23
2023-11-09T02:45:01.932Z,9.15
2023-11-09T02:50:02.184Z,9.15
2023-11-09T02:55:02.044Z,9.17
2023-11-09T03:00:01.874Z,9.22
2023-11-09T03:05:02.181Z,9.18
2023-11-09T03:10:01.480Z,9.12
2023-11-09T03:15:02.006Z,9.06
2023-11-09T03:20:01.380Z,9.08
2023-11-09T03:25:02.019Z,9.05
2023-11-09T03:30:02.040Z,9.14
2023-11-09T03:35:02.078Z,9.12
2023-11-09T03:40:01.499Z,9.14
2023-11-09T03:45:01.565Z,9.2
2023-11-09T03:50:01.923Z,9.23
2023-11-09T03:55:01.618Z,9.24
2023-11-09T04:00:02.037Z,9.26
2023-11-09T04:05:02.254Z,9.26
2023-11-09T04:10:01.746Z,9.29
2023-11-09T04:15:02.300Z,9.27
2023-11-09T04:20:01.766Z,9.37
2023-11-09T04:25:01.953Z,9.37
2023-11-09T04:30:02.437Z,9.38
2023-11-09T04:35:02.317Z,9.36
2023-11-09T04:40:02.261Z,9.32
2023-11-09T04:45:01.740Z,9.27
2023-11-09T04:50:01.365Z,9.3
2023-11-09T04:55:01.968Z,9.27
2023-11-09T05:00:01.940Z,9.21
2023-11-09T05:05:02.224Z,9.18
2023-11-09T05:10:02.138Z,9.14
2023-11-09T05:15:02.058Z,9.08
2023-11-09T05:20:02.162Z,8.94
2023-11-09T05:25:02.159Z,9.07
2023-11-09T05:30:01.854Z,8.95
2023-11-09T05:35:01.546Z,8.92
2023-11-09T05:40:01.342Z,8.88
2023-11-09T05:45:02.064Z,8.8
2023-11-09T05:50:01.237Z,8.78
2023-11-09T05:55:01.634Z,8.7
2023-11-09T06:00:02.184Z,8.75
2023-11-09T06:05:01.708Z,8.71
2023-11-09T06:10:02.096Z,8.66
2023-11-09T06:15:02.259Z,8.63
2023-11-09T06:20:02.224Z,8.63
2023-11-09T06:25:01.992Z,8.59
2023-11-09T06:30:01.413Z,8.62
2023-11-09T06:35:02.005Z,8.61
2023-11-09T06:40:02.823Z,8.56
2023-11-09T06:45:02.346Z,8.57
2023-11-09T06:50:01.947Z,8.55
2023-11-09T06:55:02.128Z,8.58
2023-11-09T07:00:01.746Z,8.55
2023-11-09T07:05:01.822Z,8.53
2023-11-09T07:10:01.264Z,8.57
2023-11-09T07:15:02.123Z,8.53
2023-11-09T07:20:01.691Z,8.53
2023-11-09T07:25:10.350Z,8.55
2023-11-09T07:30:01.515Z,8.56
2023-11-09T07:35:02.095Z,8.58
2023-11-09T07:40:01.338Z,8.61
2023-11-09T07:45:02.031Z,8.61
2023-11-09T07:50:02.167Z,8.57
2023-11-09T07:55:02.167Z,8.58
2023-11-09T08:00:05.273Z,8.61
2023-11-09T08:05:01.576Z,8.65
2023-11-09T08:10:01.715Z,8.65
2023-11-09T08:20:02.327Z,8.68
2023-11-09T08:25:01.463Z,8.72
2023-11-09T08:30:01.769Z,8.76
2023-11-09T08:35:01.398Z,8.81
2023-11-09T08:40:02.243Z,8.77
2023-11-09T08:45:01.950Z,8.79
2023-11-09T08:50:01.888Z,8.85
2023-11-09T08:55:01.893Z,8.86
2023-11-09T09:00:01.585Z,8.89
2023-11-09T09:05:01.400Z,9
2023-11-09T09:10:02.153Z,9.03
2023-11-09T09:15:01.303Z,9.16
2023-11-09T09:20:01.368Z,9.21
2023-11-09T09:25:02.135Z,9.31
2023-11-09T09:30:01.841Z,9.33
2023-11-09T09:35:01.393Z,9.4
2023-11-09T09:40:01.793Z,9.46
2023-11-09T09:45:01.305Z,9.59
2023-11-09T09:50:01.887Z,9.45
2023-11-09T09:55:01.592Z,9.78
2023-11-09T10:00:03.663Z,9.76
2023-11-09T10:05:02.437Z,9.72
2023-11-09T10:10:02.126Z,9.88
2023-11-09T10:15:01.562Z,10.06
2023-11-09T10:20:01.443Z,10.08
2023-11-09T10:25:01.711Z,10.23
2023-11-09T10:30:02.193Z,10.38
2023-11-09T10:35:01.577Z,10.23
2023-11-09T10:40:01.937Z,10.15
2023-11-09T10:45:01.282Z,10.26
2023-11-09T10:50:04.730Z,10.24
2023-11-09T10:55:02.071Z,10.1
2023-11-09T11:00:01.525Z,9.61
2023-11-09T11:05:01.301Z,9.59
2023-11-09T11:10:01.849Z,9.67
2023-11-09T11:15:02.255Z,9.67
2023-11-09T11:20:02.198Z,9.8
2023-11-09T11:25:01.353Z,9.71
2023-11-09T11:30:01.886Z,9.74
2023-11-09T11:35:02.317Z,9.74
2023-11-09T11:40:01.295Z,9.57
2023-11-09T11:45:01.833Z,9.55
2023-11-09T11:50:02.177Z,9.18
2023-11-09T11:55:01.299Z,9.2
2023-11-09T12:00:02.055Z,9.2
2023-11-09T12:05:01.583Z,9.21
2023-11-09T12:10:01.879Z,9.04
2023-11-09T12:15:02.146Z,8.98
2023-11-09T12:20:01.395Z,8.93
2023-11-09T12:25:02.173Z,8.97
2023-11-09T12:30:01.768Z,9.04
2023-11-09T12:35:02.184Z,9.09
2023-11-09T12:40:01.970Z,9.22
2023-11-09T12:45:01.325Z,9.38
2023-11-09T12:50:01.842Z,9.48
2023-11-09T12:55:02.119Z,9.53
2023-11-09T13:00:02.097Z,9.64
2023-11-09T13:05:01.781Z,9.76
2023-11-09T13:10:02.287Z,9.81
2023-11-09T13:15:01.278Z,9.96
2023-11-09T13:20:02.082Z,9.92
2023-11-09T13:25:01.588Z,9.99
2023-11-09T13:30:02.021Z,10.04
2023-11-09T13:35:03.564Z,10.1
2023-11-09T13:40:02.321Z,10.06
2023-11-09T13:45:01.673Z,10.04
2023-11-09T13:50:02.016Z,9.99
2023-11-09T13:55:01.920Z,9.88
2023-11-09T14:00:02.255Z,9.71
2023-11-09T14:05:02.745Z,9.5
2023-11-09T14:10:02.170Z,9.53
2023-11-09T14:15:01.519Z,9.45
2023-11-09T14:20:01.458Z,9.32
2023-11-09T14:25:02.244Z,9.22
2023-11-09T14:30:01.437Z,9.01
2023-11-09T14:35:03.470Z,8.88
2023-11-09T14:40:01.935Z,8.73
2023-11-09T14:45:01.545Z,8.9
2023-11-09T14:50:01.382Z,8.94
2023-11-09T14:55:01.723Z,8.98
2023-11-09T15:00:02.222Z,8.96
2023-11-09T15:05:02.964Z,8.97
2023-11-09T15:10:02.036Z,8.81
2023-11-09T15:15:01.393Z,8.98
2023-11-09T15:20:01.944Z,9.11
2023-11-09T15:25:01.569Z,9.04
2023-11-09T15:30:02.265Z,9.05
2023-11-09T15:35:01.581Z,9.17
2023-11-09T15:40:39.315Z,9.18
2023-11-09T15:45:02.210Z,9.15
2023-11-09T15:50:01.522Z,9.27
2023-11-09T15:55:04.468Z,9.29
2023-11-09T16:00:02.090Z,9.32
2023-11-09T16:05:01.809Z,9.32
2023-11-09T16:10:05.672Z,9.23
2023-11-09T16:15:01.366Z,9.21
2023-11-09T16:20:02.155Z,9.25
2023-11-09T16:25:02.825Z,9.25
2023-11-09T16:30:01.378Z,9.23
2023-11-09T16:35:02.093Z,9.21
2023-11-09T16:40:02.203Z,9.16
2023-11-09T16:45:01.438Z,9.3
2023-11-09T16:50:02.161Z,9.44
2023-11-09T16:55:03.505Z,9.4
2023-11-09T17:00:02.167Z,9.46
2023-11-09T17:05:01.582Z,9.37
2023-11-09T17:10:01.307Z,9.38
2023-11-09T17:15:01.553Z,9.48
2023-11-09T17:20:01.931Z,9.54
2023-11-09T17:25:01.562Z,9.54
2023-11-09T17:30:01.391Z,9.44
2023-11-09T17:35:02.019Z,9.51
2023-11-09T17:40:01.743Z,9.59
2023-11-09T17:45:01.489Z,9.57
2023-11-09T17:50:02.300Z,9.62
2023-11-09T17:55:01.657Z,9.64
2023-11-09T18:00:01.931Z,9.65
2023-11-09T18:05:01.448Z,9.78
2023-11-09T18:10:01.795Z,9.89
2023-11-09T18:15:01.415Z,9.86
2023-11-09T18:20:01.830Z,9.82
2023-11-09T18:25:02.031Z,9.86
2023-11-09T18:30:02.230Z,9.88
2023-11-09T18:35:01.440Z,9.9
2023-11-09T18:40:01.739Z,9.9
2023-11-09T18:45:01.567Z,9.86
2023-11-09T18:51:09.224Z,9.89
2023-11-09T18:55:01.718Z,9.84
2023-11-09T19:00:02.200Z,9.94
2023-11-09T19:05:01.514Z,9.85
2023-11-09T19:10:01.533Z,9.89
2023-11-09T19:15:01.994Z,9.79
2023-11-09T19:20:01.321Z,9.51
2023-11-09T19:25:01.882Z,9.32
2023-11-09T19:30:02.189Z,8.5
2023-11-09T19:35:01.471Z,7.78
2023-11-09T19:40:02.157Z,7.55
2023-11-09T19:45:01.532Z,7.55
2023-11-09T19:50:02.058Z,7.25
2023-11-09T19:55:02.143Z,7.14
2023-11-09T20:00:01.535Z,6.88
2023-11-09T20:05:02.164Z,6.7
2023-11-09T20:10:01.698Z,6.6
2023-11-09T20:15:01.338Z,6.61
2023-11-09T20:20:01.826Z,6.59
2023-11-09T20:25:02.219Z,6.53
2023-11-09T20:30:01.562Z,6.46
2023-11-09T20:35:02.046Z,6.46
2023-11-09T20:40:02.210Z,6.49
2023-11-09T20:45:02.201Z,6.49
2023-11-09T20:50:02.166Z,6.36
2023-11-09T20:55:01.450Z,6.27
2023-11-09T21:00:01.832Z,6.16
2023-11-09T21:05:01.316Z,6.15
2023-11-09T21:10:02.005Z,6.16
2023-11-09T21:15:02.413Z,6.07
2023-11-09T21:20:01.959Z,6
2023-11-09T21:25:02.124Z,5.96
2023-11-09T21:30:01.445Z,5.94
2023-11-09T21:35:01.394Z,5.81
2023-11-09T21:40:01.815Z,5.76
2023-11-09T21:45:02.360Z,5.74
2023-11-09T21:50:01.477Z,5.76
2023-11-09T21:55:01.365Z,5.77
2023-11-09T22:00:02.001Z,5.79
2023-11-09T22:05:01.315Z,5.76
2023-11-09T22:10:02.182Z,5.83
2023-11-09T22:15:02.258Z,5.75
2023-11-09T22:20:01.990Z,5.79
2023-11-09T22:25:02.230Z,5.74
2023-11-09T22:30:02.480Z,5.79
2023-11-09T22:35:01.653Z,5.79
2023-11-09T22:40:01.977Z,5.75
2023-11-09T22:45:01.295Z,5.77
2023-11-09T22:50:01.816Z,5.86
2023-11-09T22:55:02.119Z,5.84
2023-11-09T23:00:01.424Z,5.79
2023-11-09T23:05:01.386Z,5.83
2023-11-09T23:10:01.983Z,5.86
2023-11-09T23:15:02.150Z,5.91
2023-11-09T23:20:08.478Z,5.85
2023-11-09T23:25:01.841Z,5.7
2023-11-09T23:30:02.218Z,5.69
2023-11-09T23:35:01.529Z,5.85
2023-11-09T23:40:01.737Z,5.91
2023-11-09T23:45:01.821Z,6.02
2023-11-09T23:50:02.171Z,6.12
2023-11-09T23:55:02.149Z,6.1
